sensor_id;sensor_type;location;lat;lon;timestamp;P1;durP1;ratioP1;P2;durP2;ratioP2
462;SDS011;218;51.902;9.542;2022-09-25T00:01:58;21.27;;;19.17;;
462;SDS011;218;51.902;9.542;2022-09-25T00:04:25;21.53;;;19.47;;
462;SDS011;218;51.902;9.542;2022-09-25T00:06:53;21.57;;;19.50;;
462;SDS011;218;51.902;9.542;2022-09-25T00:09:22;20.63;;;18.63;;
462;SDS011;218;51.902;9.542;2022-09-25T00:11:49;21.83;;;19.73;;
462;SDS011;218;51.902;9.542;2022-09-25T00:14:16;21.83;;;19.77;;
462;SDS011;218;51.902;9.542;2022-09-25T00:16:45;20.33;;;18.47;;
462;SDS011;218;51.902;9.542;2022-09-25T00:19:15;21.43;;;19.27;;
462;SDS011;218;51.902;9.542;2022-09-25T00:22:03;23.30;;;21.03;;
462;SDS011;218;51.902;9.542;2022-09-25T00:24:32;22.97;;;20.50;;
462;SDS011;218;51.902;9.542;2022-09-25T00:27:00;24.50;;;22.10;;
462;SDS011;218;51.902;9.542;2022-09-25T00:29:27;21.77;;;19.73;;
462;SDS011;218;51.902;9.542;2022-09-25T00:31:54;22.90;;;20.80;;
462;SDS011;218;51.902;9.542;2022-09-25T00:34:21;20.23;;;18.27;;
462;SDS011;218;51.902;9.542;2022-09-25T00:36:48;20.33;;;18.60;;
462;SDS011;218;51.902;9.542;2022-09-25T00:39:15;22.50;;;20.17;;
462;SDS011;218;51.902;9.542;2022-09-25T00:41:44;19.87;;;18.00;;
462;SDS011;218;51.902;9.542;2022-09-25T00:47:21;19.33;;;17.70;;
462;SDS011;218;51.902;9.542;2022-09-25T00:49:50;20.93;;;18.83;;
462;SDS011;218;51.902;9.542;2022-09-25T00:52:19;18.43;;;16.63;;
462;SDS011;218;51.902;9.542;2022-09-25T00:54:48;20.10;;;18.07;;
462;SDS011;218;51.902;9.542;2022-09-25T00:57:21;19.77;;;17.87;;
462;SDS011;218;51.902;9.542;2022-09-25T00:59:51;19.87;;;18.17;;
462;SDS011;218;51.902;9.542;2022-09-25T01:02:20;22.43;;;20.27;;
462;SDS011;218;51.902;9.542;2022-09-25T01:04:49;21.23;;;19.17;;
462;SDS011;218;51.902;9.542;2022-09-25T01:07:17;20.07;;;18.27;;
462;SDS011;218;51.902;9.542;2022-09-25T01:09:45;18.13;;;16.43;;
462;SDS011;218;51.902;9.542;2022-09-25T01:12:12;20.93;;;18.77;;
462;SDS011;218;51.902;9.542;2022-09-25T01:14:41;18.60;;;17.00;;
462;SDS011;218;51.902;9.542;2022-09-25T01:17:10;18.50;;;16.70;;
462;SDS011;218;51.902;9.542;2022-09-25T01:19:45;18.10;;;16.50;;
462;SDS011;218;51.902;9.542;2022-09-25T01:22:19;18.40;;;16.80;;
462;SDS011;218;51.902;9.542;2022-09-25T01:24:54;19.80;;;17.97;;
462;SDS011;218;51.902;9.542;2022-09-25T01:27:40;19.13;;;17.33;;
462;SDS011;218;51.902;9.542;2022-09-25T01:30:17;19.00;;;17.30;;
462;SDS011;218;51.902;9.542;2022-09-25T01:32:57;17.37;;;15.77;;
462;SDS011;218;51.902;9.542;2022-09-25T01:35:31;19.00;;;17.20;;
462;SDS011;218;51.902;9.542;2022-09-25T01:38:01;19.17;;;17.00;;
462;SDS011;218;51.902;9.542;2022-09-25T01:40:33;19.07;;;17.37;;
462;SDS011;218;51.902;9.542;2022-09-25T01:43:04;18.77;;;16.97;;
462;SDS011;218;51.902;9.542;2022-09-25T01:45:35;17.73;;;16.20;;
462;SDS011;218;51.902;9.542;2022-09-25T01:48:06;20.37;;;16.80;;
462;SDS011;218;51.902;9.542;2022-09-25T01:50:39;18.37;;;16.67;;
462;SDS011;218;51.902;9.542;2022-09-25T01:53:11;18.40;;;16.70;;
462;SDS011;218;51.902;9.542;2022-09-25T01:55:41;18.60;;;16.90;;
462;SDS011;218;51.902;9.542;2022-09-25T01:58:13;17.50;;;15.83;;
462;SDS011;218;51.902;9.542;2022-09-25T02:00:43;17.00;;;15.30;;
462;SDS011;218;51.902;9.542;2022-09-25T02:03:15;16.80;;;15.20;;
462;SDS011;218;51.902;9.542;2022-09-25T02:05:45;18.40;;;16.70;;
462;SDS011;218;51.902;9.542;2022-09-25T02:08:16;18.30;;;16.70;;
462;SDS011;218;51.902;9.542;2022-09-25T02:10:47;18.80;;;17.00;;
462;SDS011;218;51.902;9.542;2022-09-25T02:13:20;17.33;;;15.73;;
462;SDS011;218;51.902;9.542;2022-09-25T02:15:50;17.20;;;15.67;;
462;SDS011;218;51.902;9.542;2022-09-25T02:18:20;18.77;;;17.20;;
462;SDS011;218;51.902;9.542;2022-09-25T02:21:13;17.20;;;15.70;;
462;SDS011;218;51.902;9.542;2022-09-25T02:23:46;15.87;;;14.47;;
462;SDS011;218;51.902;9.542;2022-09-25T02:26:20;16.57;;;14.97;;
462;SDS011;218;51.902;9.542;2022-09-25T02:28:48;16.60;;;15.00;;
462;SDS011;218;51.902;9.542;2022-09-25T02:31:19;15.97;;;14.57;;
462;SDS011;218;51.902;9.542;2022-09-25T02:33:48;15.43;;;14.03;;
462;SDS011;218;51.902;9.542;2022-09-25T02:36:16;15.53;;;14.13;;
462;SDS011;218;51.902;9.542;2022-09-25T02:38:44;19.60;;;17.83;;
462;SDS011;218;51.902;9.542;2022-09-25T02:41:16;17.50;;;15.97;;
462;SDS011;218;51.902;9.542;2022-09-25T02:43:49;16.33;;;14.73;;
462;SDS011;218;51.902;9.542;2022-09-25T02:46:24;17.80;;;16.03;;
462;SDS011;218;51.902;9.542;2022-09-25T02:48:57;16.07;;;14.67;;
462;SDS011;218;51.902;9.542;2022-09-25T02:51:26;16.53;;;15.10;;
462;SDS011;218;51.902;9.542;2022-09-25T02:54:02;16.17;;;14.67;;
462;SDS011;218;51.902;9.542;2022-09-25T02:56:34;16.57;;;14.97;;
462;SDS011;218;51.902;9.542;2022-09-25T02:59:06;14.80;;;13.40;;
462;SDS011;218;51.902;9.542;2022-09-25T03:01:41;15.70;;;14.47;;
462;SDS011;218;51.902;9.542;2022-09-25T03:04:08;19.30;;;15.47;;
462;SDS011;218;51.902;9.542;2022-09-25T03:06:37;15.97;;;14.47;;
462;SDS011;218;51.902;9.542;2022-09-25T03:09:04;14.33;;;13.13;;
462;SDS011;218;51.902;9.542;2022-09-25T03:11:34;15.40;;;14.07;;
462;SDS011;218;51.902;9.542;2022-09-25T03:14:07;14.23;;;13.00;;
462;SDS011;218;51.902;9.542;2022-09-25T03:16:36;14.17;;;12.87;;
462;SDS011;218;51.902;9.542;2022-09-25T03:19:08;16.03;;;14.53;;
462;SDS011;218;51.902;9.542;2022-09-25T03:21:35;14.77;;;13.43;;
462;SDS011;218;51.902;9.542;2022-09-25T03:24:03;14.90;;;13.50;;
462;SDS011;218;51.902;9.542;2022-09-25T03:26:30;14.97;;;13.77;;
462;SDS011;218;51.902;9.542;2022-09-25T03:28:57;13.70;;;12.47;;
462;SDS011;218;51.902;9.542;2022-09-25T03:31:26;15.80;;;14.30;;
462;SDS011;218;51.902;9.542;2022-09-25T03:33:54;13.70;;;12.40;;
462;SDS011;218;51.902;9.542;2022-09-25T03:36:23;14.70;;;12.60;;
462;SDS011;218;51.902;9.542;2022-09-25T03:38:52;13.80;;;12.53;;
462;SDS011;218;51.902;9.542;2022-09-25T03:41:23;13.83;;;12.60;;
462;SDS011;218;51.902;9.542;2022-09-25T03:43:52;14.03;;;12.63;;
462;SDS011;218;51.902;9.542;2022-09-25T03:46:22;12.43;;;11.33;;
462;SDS011;218;51.902;9.542;2022-09-25T03:48:50;13.50;;;12.40;;
462;SDS011;218;51.902;9.542;2022-09-25T03:51:17;14.23;;;12.93;;
462;SDS011;218;51.902;9.542;2022-09-25T03:53:46;13.70;;;12.60;;
462;SDS011;218;51.902;9.542;2022-09-25T03:56:15;14.97;;;13.53;;
462;SDS011;218;51.902;9.542;2022-09-25T03:58:44;15.53;;;14.00;;
462;SDS011;218;51.902;9.542;2022-09-25T04:01:13;16.10;;;14.23;;
462;SDS011;218;51.902;9.542;2022-09-25T04:03:40;14.90;;;13.43;;
462;SDS011;218;51.902;9.542;2022-09-25T04:06:11;15.17;;;13.50;;
462;SDS011;218;51.902;9.542;2022-09-25T04:08:39;15.00;;;13.60;;
462;SDS011;218;51.902;9.542;2022-09-25T04:11:07;15.57;;;14.13;;
462;SDS011;218;51.902;9.542;2022-09-25T04:13:35;15.33;;;13.80;;
462;SDS011;218;51.902;9.542;2022-09-25T04:16:03;15.20;;;13.90;;
462;SDS011;218;51.902;9.542;2022-09-25T04:18:31;14.40;;;13.17;;
462;SDS011;218;51.902;9.542;2022-09-25T04:21:11;15.37;;;13.93;;
462;SDS011;218;51.902;9.542;2022-09-25T04:23:57;14.93;;;13.70;;
462;SDS011;218;51.902;9.542;2022-09-25T04:26:43;14.43;;;13.17;;
462;SDS011;218;51.902;9.542;2022-09-25T04:29:10;14.50;;;13.20;;
462;SDS011;218;51.902;9.542;2022-09-25T04:31:39;15.17;;;13.00;;
462;SDS011;218;51.902;9.542;2022-09-25T04:34:06;12.73;;;11.67;;
462;SDS011;218;51.902;9.542;2022-09-25T04:36:32;15.97;;;14.47;;
462;SDS011;218;51.902;9.542;2022-09-25T04:38:59;15.63;;;14.00;;
462;SDS011;218;51.902;9.542;2022-09-25T04:41:26;14.53;;;13.23;;
462;SDS011;218;51.902;9.542;2022-09-25T04:46:51;13.83;;;12.30;;
462;SDS011;218;51.902;9.542;2022-09-25T04:49:18;13.50;;;12.17;;
462;SDS011;218;51.902;9.542;2022-09-25T04:51:45;14.00;;;12.50;;
462;SDS011;218;51.902;9.542;2022-09-25T04:54:12;14.03;;;12.63;;
462;SDS011;218;51.902;9.542;2022-09-25T04:56:41;15.80;;;14.37;;
462;SDS011;218;51.902;9.542;2022-09-25T04:59:10;14.20;;;12.93;;
462;SDS011;218;51.902;9.542;2022-09-25T05:01:37;14.57;;;13.27;;
462;SDS011;218;51.902;9.542;2022-09-25T05:04:04;15.67;;;14.23;;
462;SDS011;218;51.902;9.542;2022-09-25T05:06:31;14.17;;;12.70;;
462;SDS011;218;51.902;9.542;2022-09-25T05:08:58;13.70;;;12.53;;
462;SDS011;218;51.902;9.542;2022-09-25T05:11:27;13.37;;;12.27;;
462;SDS011;218;51.902;9.542;2022-09-25T05:13:54;14.63;;;13.23;;
462;SDS011;218;51.902;9.542;2022-09-25T05:16:23;14.50;;;13.30;;
462;SDS011;218;51.902;9.542;2022-09-25T05:18:52;13.67;;;12.57;;
462;SDS011;218;51.902;9.542;2022-09-25T05:21:20;14.07;;;12.77;;
462;SDS011;218;51.902;9.542;2022-09-25T05:23:47;15.20;;;12.90;;
462;SDS011;218;51.902;9.542;2022-09-25T05:26:15;13.27;;;12.10;;
462;SDS011;218;51.902;9.542;2022-09-25T05:28:42;14.10;;;12.80;;
462;SDS011;218;51.902;9.542;2022-09-25T05:31:12;14.10;;;12.80;;
462;SDS011;218;51.902;9.542;2022-09-25T05:33:40;13.80;;;12.50;;
462;SDS011;218;51.902;9.542;2022-09-25T05:36:08;12.83;;;11.83;;
462;SDS011;218;51.902;9.542;2022-09-25T05:38:36;13.30;;;12.00;;
462;SDS011;218;51.902;9.542;2022-09-25T05:41:05;13.27;;;11.90;;
462;SDS011;218;51.902;9.542;2022-09-25T05:43:32;13.80;;;11.70;;
462;SDS011;218;51.902;9.542;2022-09-25T05:46:00;12.77;;;11.67;;
462;SDS011;218;51.902;9.542;2022-09-25T05:48:27;12.87;;;11.70;;
462;SDS011;218;51.902;9.542;2022-09-25T05:50:56;14.70;;;12.13;;
462;SDS011;218;51.902;9.542;2022-09-25T05:53:24;12.43;;;11.37;;
462;SDS011;218;51.902;9.542;2022-09-25T05:55:52;11.57;;;10.57;;
462;SDS011;218;51.902;9.542;2022-09-25T05:58:22;12.70;;;11.47;;
462;SDS011;218;51.902;9.542;2022-09-25T06:00:49;14.47;;;11.10;;
462;SDS011;218;51.902;9.542;2022-09-25T06:03:17;12.70;;;11.47;;
462;SDS011;218;51.902;9.542;2022-09-25T06:05:44;13.17;;;12.07;;
462;SDS011;218;51.902;9.542;2022-09-25T06:08:13;15.43;;;12.33;;
462;SDS011;218;51.902;9.542;2022-09-25T06:10:40;12.47;;;11.40;;
462;SDS011;218;51.902;9.542;2022-09-25T06:13:08;11.80;;;10.90;;
462;SDS011;218;51.902;9.542;2022-09-25T06:15:35;12.83;;;11.73;;
462;SDS011;218;51.902;9.542;2022-09-25T06:18:06;16.60;;;15.10;;
462;SDS011;218;51.902;9.542;2022-09-25T06:20:33;18.00;;;16.40;;
462;SDS011;218;51.902;9.542;2022-09-25T06:23:01;19.23;;;17.63;;
462;SDS011;218;51.902;9.542;2022-09-25T06:25:30;19.10;;;17.47;;
462;SDS011;218;51.902;9.542;2022-09-25T06:27:58;20.03;;;18.23;;
462;SDS011;218;51.902;9.542;2022-09-25T06:30:26;21.30;;;19.47;;
462;SDS011;218;51.902;9.542;2022-09-25T06:32:59;20.13;;;18.30;;
462;SDS011;218;51.902;9.542;2022-09-25T06:35:39;19.37;;;17.67;;
462;SDS011;218;51.902;9.542;2022-09-25T06:38:06;25.10;;;22.70;;
462;SDS011;218;51.902;9.542;2022-09-25T06:40:35;28.83;;;26.23;;
462;SDS011;218;51.902;9.542;2022-09-25T06:43:05;27.93;;;25.53;;
462;SDS011;218;51.902;9.542;2022-09-25T06:45:34;28.07;;;25.70;;
462;SDS011;218;51.902;9.542;2022-09-25T06:48:03;25.13;;;22.90;;
462;SDS011;218;51.902;9.542;2022-09-25T06:50:35;25.53;;;23.27;;
462;SDS011;218;51.902;9.542;2022-09-25T06:53:04;22.20;;;20.40;;
462;SDS011;218;51.902;9.542;2022-09-25T06:55:31;18.30;;;16.73;;
462;SDS011;218;51.902;9.542;2022-09-25T06:58:00;15.87;;;14.53;;
462;SDS011;218;51.902;9.542;2022-09-25T07:00:28;15.37;;;14.07;;
462;SDS011;218;51.902;9.542;2022-09-25T07:02:56;13.63;;;12.50;;
462;SDS011;218;51.902;9.542;2022-09-25T07:05:40;12.03;;;10.97;;
462;SDS011;218;51.902;9.542;2022-09-25T07:08:08;11.40;;;10.40;;
462;SDS011;218;51.902;9.542;2022-09-25T07:10:37;10.27;;;9.47;;
462;SDS011;218;51.902;9.542;2022-09-25T07:13:05;10.27;;;9.47;;
462;SDS011;218;51.902;9.542;2022-09-25T07:15:32;10.33;;;9.40;;
462;SDS011;218;51.902;9.542;2022-09-25T07:17:59;11.53;;;10.03;;
462;SDS011;218;51.902;9.542;2022-09-25T07:20:29;10.60;;;9.67;;
462;SDS011;218;51.902;9.542;2022-09-25T07:22:57;11.80;;;9.63;;
462;SDS011;218;51.902;9.542;2022-09-25T07:25:28;10.40;;;9.50;;
462;SDS011;218;51.902;9.542;2022-09-25T07:27:55;14.53;;;8.80;;
462;SDS011;218;51.902;9.542;2022-09-25T07:30:24;11.20;;;8.93;;
462;SDS011;218;51.902;9.542;2022-09-25T07:32:53;9.37;;;8.47;;
462;SDS011;218;51.902;9.542;2022-09-25T07:35:21;11.30;;;9.37;;
462;SDS011;218;51.902;9.542;2022-09-25T07:37:48;9.00;;;8.20;;
462;SDS011;218;51.902;9.542;2022-09-25T07:40:15;9.13;;;8.23;;
462;SDS011;218;51.902;9.542;2022-09-25T07:42:43;10.57;;;9.57;;
462;SDS011;218;51.902;9.542;2022-09-25T07:45:10;8.77;;;7.97;;
462;SDS011;218;51.902;9.542;2022-09-25T07:47:39;10.20;;;8.93;;
462;SDS011;218;51.902;9.542;2022-09-25T07:50:09;9.57;;;8.77;;
462;SDS011;218;51.902;9.542;2022-09-25T07:52:36;10.77;;;9.87;;
462;SDS011;218;51.902;9.542;2022-09-25T07:55:03;10.40;;;9.40;;
462;SDS011;218;51.902;9.542;2022-09-25T07:57:43;9.10;;;8.40;;
462;SDS011;218;51.902;9.542;2022-09-25T08:00:26;9.70;;;8.53;;
462;SDS011;218;51.902;9.542;2022-09-25T08:02:57;7.90;;;7.20;;
462;SDS011;218;51.902;9.542;2022-09-25T08:05:25;9.30;;;8.50;;
462;SDS011;218;51.902;9.542;2022-09-25T08:07:53;9.37;;;8.43;;
462;SDS011;218;51.902;9.542;2022-09-25T08:10:20;11.87;;;10.77;;
462;SDS011;218;51.902;9.542;2022-09-25T08:12:47;8.97;;;8.07;;
462;SDS011;218;51.902;9.542;2022-09-25T08:15:15;8.83;;;8.13;;
462;SDS011;218;51.902;9.542;2022-09-25T08:17:42;10.67;;;8.53;;
462;SDS011;218;51.902;9.542;2022-09-25T08:20:10;9.53;;;8.70;;
462;SDS011;218;51.902;9.542;2022-09-25T08:22:37;8.33;;;7.50;;
462;SDS011;218;51.902;9.542;2022-09-25T08:25:05;10.03;;;7.60;;
462;SDS011;218;51.902;9.542;2022-09-25T08:27:34;10.97;;;8.97;;
462;SDS011;218;51.902;9.542;2022-09-25T08:30:05;7.73;;;7.13;;
462;SDS011;218;51.902;9.542;2022-09-25T08:32:34;16.10;;;7.80;;
462;SDS011;218;51.902;9.542;2022-09-25T08:35:02;10.90;;;9.07;;
462;SDS011;218;51.902;9.542;2022-09-25T08:37:31;8.20;;;7.13;;
462;SDS011;218;51.902;9.542;2022-09-25T08:39:58;8.43;;;7.50;;
462;SDS011;218;51.902;9.542;2022-09-25T08:42:27;8.93;;;7.50;;
462;SDS011;218;51.902;9.542;2022-09-25T08:44:59;7.10;;;6.57;;
462;SDS011;218;51.902;9.542;2022-09-25T08:47:49;7.97;;;7.17;;
462;SDS011;218;51.902;9.542;2022-09-25T08:50:35;11.73;;;8.07;;
462;SDS011;218;51.902;9.542;2022-09-25T08:53:05;9.70;;;8.70;;
462;SDS011;218;51.902;9.542;2022-09-25T08:55:34;8.13;;;7.40;;
462;SDS011;218;51.902;9.542;2022-09-25T08:58:24;11.80;;;9.50;;
462;SDS011;218;51.902;9.542;2022-09-25T09:00:54;7.37;;;6.57;;
462;SDS011;218;51.902;9.542;2022-09-25T09:03:24;7.47;;;6.80;;
462;SDS011;218;51.902;9.542;2022-09-25T09:05:55;8.27;;;7.50;;
462;SDS011;218;51.902;9.542;2022-09-25T09:08:28;6.93;;;6.40;;
462;SDS011;218;51.902;9.542;2022-09-25T09:10:56;7.93;;;6.70;;
462;SDS011;218;51.902;9.542;2022-09-25T09:13:30;7.07;;;6.17;;
462;SDS011;218;51.902;9.542;2022-09-25T09:16:01;7.33;;;6.50;;
462;SDS011;218;51.902;9.542;2022-09-25T09:18:35;6.77;;;5.90;;
462;SDS011;218;51.902;9.542;2022-09-25T09:21:06;7.93;;;7.23;;
462;SDS011;218;51.902;9.542;2022-09-25T09:23:41;6.90;;;6.30;;
462;SDS011;218;51.902;9.542;2022-09-25T09:26:16;10.20;;;5.97;;
462;SDS011;218;51.902;9.542;2022-09-25T09:28:50;6.90;;;6.30;;
462;SDS011;218;51.902;9.542;2022-09-25T09:31:29;6.43;;;5.47;;
462;SDS011;218;51.902;9.542;2022-09-25T09:33:58;7.03;;;6.53;;
462;SDS011;218;51.902;9.542;2022-09-25T09:36:28;8.63;;;5.30;;
462;SDS011;218;51.902;9.542;2022-09-25T09:39:04;7.20;;;6.00;;
462;SDS011;218;51.902;9.542;2022-09-25T09:41:43;12.13;;;5.17;;
462;SDS011;218;51.902;9.542;2022-09-25T09:44:27;5.73;;;5.23;;
462;SDS011;218;51.902;9.542;2022-09-25T09:47:03;5.47;;;5.00;;
462;SDS011;218;51.902;9.542;2022-09-25T09:49:40;5.67;;;5.23;;
462;SDS011;218;51.902;9.542;2022-09-25T09:52:11;5.47;;;4.90;;
462;SDS011;218;51.902;9.542;2022-09-25T09:54:45;5.53;;;5.13;;
462;SDS011;218;51.902;9.542;2022-09-25T09:57:17;6.10;;;5.33;;
462;SDS011;218;51.902;9.542;2022-09-25T09:59:49;5.80;;;5.30;;
462;SDS011;218;51.902;9.542;2022-09-25T10:02:25;6.47;;;4.80;;
462;SDS011;218;51.902;9.542;2022-09-25T10:04:57;6.90;;;4.60;;
462;SDS011;218;51.902;9.542;2022-09-25T10:07:27;7.43;;;5.87;;
462;SDS011;218;51.902;9.542;2022-09-25T10:10:00;6.33;;;5.43;;
462;SDS011;218;51.902;9.542;2022-09-25T10:12:28;5.20;;;4.40;;
462;SDS011;218;51.902;9.542;2022-09-25T10:14:57;7.57;;;4.93;;
462;SDS011;218;51.902;9.542;2022-09-25T10:17:27;4.57;;;3.83;;
462;SDS011;218;51.902;9.542;2022-09-25T10:19:56;4.80;;;3.87;;
462;SDS011;218;51.902;9.542;2022-09-25T10:22:24;6.83;;;4.70;;
462;SDS011;218;51.902;9.542;2022-09-25T10:24:54;7.40;;;4.60;;
462;SDS011;218;51.902;9.542;2022-09-25T10:27:31;4.47;;;4.07;;
462;SDS011;218;51.902;9.542;2022-09-25T10:30:11;4.90;;;4.03;;
462;SDS011;218;51.902;9.542;2022-09-25T10:32:44;4.90;;;4.40;;
462;SDS011;218;51.902;9.542;2022-09-25T10:35:18;4.60;;;4.33;;
462;SDS011;218;51.902;9.542;2022-09-25T10:37:47;4.43;;;4.10;;
462;SDS011;218;51.902;9.542;2022-09-25T10:40:24;4.73;;;4.30;;
462;SDS011;218;51.902;9.542;2022-09-25T10:43:14;5.03;;;4.70;;
462;SDS011;218;51.902;9.542;2022-09-25T10:45:44;4.50;;;4.20;;
462;SDS011;218;51.902;9.542;2022-09-25T10:48:23;3.73;;;3.43;;
462;SDS011;218;51.902;9.542;2022-09-25T10:51:09;4.43;;;4.03;;
462;SDS011;218;51.902;9.542;2022-09-25T10:53:42;6.10;;;4.90;;
462;SDS011;218;51.902;9.542;2022-09-25T10:56:10;4.40;;;4.00;;
462;SDS011;218;51.902;9.542;2022-09-25T10:58:49;6.43;;;4.50;;
462;SDS011;218;51.902;9.542;2022-09-25T11:01:20;6.30;;;4.77;;
462;SDS011;218;51.902;9.542;2022-09-25T11:03:54;5.10;;;4.70;;
462;SDS011;218;51.902;9.542;2022-09-25T11:06:26;5.73;;;5.23;;
462;SDS011;218;51.902;9.542;2022-09-25T11:09:22;5.50;;;4.17;;
462;SDS011;218;51.902;9.542;2022-09-25T11:11:52;5.40;;;4.90;;
462;SDS011;218;51.902;9.542;2022-09-25T11:14:32;6.03;;;5.47;;
462;SDS011;218;51.902;9.542;2022-09-25T11:17:01;6.37;;;5.70;;
462;SDS011;218;51.902;9.542;2022-09-25T11:19:31;5.87;;;5.47;;
462;SDS011;218;51.902;9.542;2022-09-25T11:22:02;6.03;;;5.07;;
462;SDS011;218;51.902;9.542;2022-09-25T11:27:23;6.97;;;5.60;;
462;SDS011;218;51.902;9.542;2022-09-25T11:29:59;6.37;;;5.87;;
462;SDS011;218;51.902;9.542;2022-09-25T11:32:30;5.03;;;4.63;;
462;SDS011;218;51.902;9.542;2022-09-25T11:35:11;8.33;;;5.83;;
462;SDS011;218;51.902;9.542;2022-09-25T11:38:00;4.73;;;4.40;;
462;SDS011;218;51.902;9.542;2022-09-25T11:40:37;5.20;;;4.80;;
462;SDS011;218;51.902;9.542;2022-09-25T11:43:39;5.50;;;5.00;;
462;SDS011;218;51.902;9.542;2022-09-25T11:46:18;5.60;;;5.07;;
462;SDS011;218;51.902;9.542;2022-09-25T11:48:53;4.80;;;4.50;;
462;SDS011;218;51.902;9.542;2022-09-25T11:51:29;4.87;;;4.57;;
462;SDS011;218;51.902;9.542;2022-09-25T11:54:07;4.57;;;4.17;;
462;SDS011;218;51.902;9.542;2022-09-25T11:56:44;10.37;;;4.70;;
462;SDS011;218;51.902;9.542;2022-09-25T11:59:20;7.17;;;4.63;;
462;SDS011;218;51.902;9.542;2022-09-25T12:02:00;5.70;;;5.20;;
462;SDS011;218;51.902;9.542;2022-09-25T12:04:42;6.17;;;5.57;;
462;SDS011;218;51.902;9.542;2022-09-25T12:07:27;7.90;;;6.13;;
462;SDS011;218;51.902;9.542;2022-09-25T12:10:11;5.90;;;5.50;;
462;SDS011;218;51.902;9.542;2022-09-25T12:12:54;5.43;;;4.60;;
462;SDS011;218;51.902;9.542;2022-09-25T12:15:40;4.10;;;3.90;;
462;SDS011;218;51.902;9.542;2022-09-25T12:18:20;4.03;;;3.30;;
462;SDS011;218;51.902;9.542;2022-09-25T12:20:51;3.20;;;2.97;;
462;SDS011;218;51.902;9.542;2022-09-25T12:23:28;4.37;;;3.97;;
462;SDS011;218;51.902;9.542;2022-09-25T12:26:01;4.30;;;4.10;;
462;SDS011;218;51.902;9.542;2022-09-25T12:28:37;6.17;;;5.60;;
462;SDS011;218;51.902;9.542;2022-09-25T12:31:18;7.13;;;6.53;;
462;SDS011;218;51.902;9.542;2022-09-25T12:36:55;4.90;;;4.50;;
462;SDS011;218;51.902;9.542;2022-09-25T12:39:30;4.00;;;3.70;;
462;SDS011;218;51.902;9.542;2022-09-25T12:42:05;3.60;;;3.37;;
462;SDS011;218;51.902;9.542;2022-09-25T12:44:42;4.03;;;3.73;;
462;SDS011;218;51.902;9.542;2022-09-25T12:47:15;3.10;;;2.90;;
462;SDS011;218;51.902;9.542;2022-09-25T12:49:50;3.00;;;2.80;;
462;SDS011;218;51.902;9.542;2022-09-25T12:52:24;3.07;;;2.20;;
462;SDS011;218;51.902;9.542;2022-09-25T12:54:56;3.17;;;2.97;;
462;SDS011;218;51.902;9.542;2022-09-25T12:57:29;2.90;;;2.70;;
462;SDS011;218;51.902;9.542;2022-09-25T13:00:03;2.60;;;2.50;;
462;SDS011;218;51.902;9.542;2022-09-25T13:02:34;2.60;;;2.40;;
462;SDS011;218;51.902;9.542;2022-09-25T13:05:09;2.90;;;2.57;;
462;SDS011;218;51.902;9.542;2022-09-25T13:07:41;3.77;;;2.70;;
462;SDS011;218;51.902;9.542;2022-09-25T13:10:18;2.90;;;2.33;;
462;SDS011;218;51.902;9.542;2022-09-25T13:12:49;2.57;;;2.43;;
462;SDS011;218;51.902;9.542;2022-09-25T13:15:21;2.37;;;2.17;;
462;SDS011;218;51.902;9.542;2022-09-25T13:17:51;3.83;;;2.67;;
462;SDS011;218;51.902;9.542;2022-09-25T13:23:24;6.30;;;3.07;;
462;SDS011;218;51.902;9.542;2022-09-25T13:25:57;4.03;;;1.80;;
462;SDS011;218;51.902;9.542;2022-09-25T13:28:28;2.90;;;2.40;;
462;SDS011;218;51.902;9.542;2022-09-25T13:31:02;2.10;;;2.00;;
462;SDS011;218;51.902;9.542;2022-09-25T13:33:41;2.20;;;2.10;;
462;SDS011;218;51.902;9.542;2022-09-25T13:36:29;2.90;;;2.30;;
462;SDS011;218;51.902;9.542;2022-09-25T13:39:05;2.03;;;1.90;;
462;SDS011;218;51.902;9.542;2022-09-25T13:42:00;2.57;;;2.40;;
462;SDS011;218;51.902;9.542;2022-09-25T13:44:47;2.60;;;2.47;;
462;SDS011;218;51.902;9.542;2022-09-25T13:50:27;2.00;;;1.80;;
462;SDS011;218;51.902;9.542;2022-09-25T13:56:12;3.00;;;2.40;;
462;SDS011;218;51.902;9.542;2022-09-25T13:58:57;4.03;;;1.97;;
462;SDS011;218;51.902;9.542;2022-09-25T14:01:40;2.50;;;1.90;;
462;SDS011;218;51.902;9.542;2022-09-25T14:04:09;2.03;;;1.90;;
462;SDS011;218;51.902;9.542;2022-09-25T14:06:45;2.13;;;2.03;;
462;SDS011;218;51.902;9.542;2022-09-25T14:09:17;2.20;;;2.00;;
462;SDS011;218;51.902;9.542;2022-09-25T14:11:49;2.00;;;1.90;;
462;SDS011;218;51.902;9.542;2022-09-25T14:14:21;2.27;;;1.73;;
462;SDS011;218;51.902;9.542;2022-09-25T14:16:53;1.60;;;1.60;;
462;SDS011;218;51.902;9.542;2022-09-25T14:19:24;3.33;;;2.30;;
462;SDS011;218;51.902;9.542;2022-09-25T14:21:54;2.27;;;2.07;;
462;SDS011;218;51.902;9.542;2022-09-25T14:24:25;2.50;;;1.93;;
462;SDS011;218;51.902;9.542;2022-09-25T14:26:54;2.17;;;2.07;;
462;SDS011;218;51.902;9.542;2022-09-25T14:29:25;2.30;;;2.10;;
462;SDS011;218;51.902;9.542;2022-09-25T14:31:59;3.93;;;2.20;;
462;SDS011;218;51.902;9.542;2022-09-25T14:34:47;2.70;;;2.50;;
462;SDS011;218;51.902;9.542;2022-09-25T14:37:30;2.80;;;2.07;;
462;SDS011;218;51.902;9.542;2022-09-25T14:40:30;2.93;;;2.73;;
462;SDS011;218;51.902;9.542;2022-09-25T14:43:06;2.10;;;2.00;;
462;SDS011;218;51.902;9.542;2022-09-25T14:46:00;2.80;;;2.10;;
462;SDS011;218;51.902;9.542;2022-09-25T14:48:30;2.40;;;2.20;;
462;SDS011;218;51.902;9.542;2022-09-25T14:51:02;2.37;;;2.20;;
462;SDS011;218;51.902;9.542;2022-09-25T14:53:53;2.47;;;2.37;;
462;SDS011;218;51.902;9.542;2022-09-25T14:56:24;2.17;;;2.07;;
462;SDS011;218;51.902;9.542;2022-09-25T14:58:56;2.80;;;2.27;;
462;SDS011;218;51.902;9.542;2022-09-25T15:01:26;4.13;;;2.37;;
462;SDS011;218;51.902;9.542;2022-09-25T15:03:55;2.73;;;2.00;;
462;SDS011;218;51.902;9.542;2022-09-25T15:06:25;3.47;;;2.40;;
462;SDS011;218;51.902;9.542;2022-09-25T15:08:54;2.40;;;2.20;;
462;SDS011;218;51.902;9.542;2022-09-25T15:11:22;2.83;;;2.30;;
462;SDS011;218;51.902;9.542;2022-09-25T15:13:53;3.77;;;2.73;;
462;SDS011;218;51.902;9.542;2022-09-25T15:16:34;2.73;;;2.50;;
462;SDS011;218;51.902;9.542;2022-09-25T15:19:21;3.03;;;2.10;;
462;SDS011;218;51.902;9.542;2022-09-25T15:21:52;4.53;;;2.07;;
462;SDS011;218;51.902;9.542;2022-09-25T15:24:21;1.90;;;1.80;;
462;SDS011;218;51.902;9.542;2022-09-25T15:26:54;2.53;;;2.33;;
462;SDS011;218;51.902;9.542;2022-09-25T15:29:27;2.80;;;2.30;;
462;SDS011;218;51.902;9.542;2022-09-25T15:31:56;1.90;;;1.80;;
462;SDS011;218;51.902;9.542;2022-09-25T15:34:23;2.50;;;1.90;;
462;SDS011;218;51.902;9.542;2022-09-25T15:36:52;2.30;;;2.10;;
462;SDS011;218;51.902;9.542;2022-09-25T15:39:20;2.37;;;2.17;;
462;SDS011;218;51.902;9.542;2022-09-25T15:41:49;4.50;;;2.87;;
462;SDS011;218;51.902;9.542;2022-09-25T15:44:18;2.40;;;2.20;;
462;SDS011;218;51.902;9.542;2022-09-25T15:46:48;2.20;;;2.00;;
462;SDS011;218;51.902;9.542;2022-09-25T15:49:17;2.10;;;2.00;;
462;SDS011;218;51.902;9.542;2022-09-25T15:51:48;3.00;;;2.10;;
462;SDS011;218;51.902;9.542;2022-09-25T15:54:23;2.30;;;2.10;;
462;SDS011;218;51.902;9.542;2022-09-25T15:56:56;2.00;;;1.90;;
462;SDS011;218;51.902;9.542;2022-09-25T15:59:27;2.10;;;1.90;;
462;SDS011;218;51.902;9.542;2022-09-25T16:01:58;3.60;;;2.40;;
462;SDS011;218;51.902;9.542;2022-09-25T16:04:51;2.17;;;2.07;;
462;SDS011;218;51.902;9.542;2022-09-25T16:07:19;2.10;;;2.00;;
462;SDS011;218;51.902;9.542;2022-09-25T16:09:48;1.70;;;1.60;;
462;SDS011;218;51.902;9.542;2022-09-25T16:12:26;3.50;;;2.37;;
462;SDS011;218;51.902;9.542;2022-09-25T16:14:56;2.20;;;2.00;;
462;SDS011;218;51.902;9.542;2022-09-25T16:17:27;2.10;;;2.00;;
462;SDS011;218;51.902;9.542;2022-09-25T16:20:02;2.03;;;1.80;;
462;SDS011;218;51.902;9.542;2022-09-25T16:22:35;2.23;;;2.10;;